createdAt,value
2023-03-31T00:01:45.052Z,15.03
2023-03-31T00:04:14.316Z,14.40
2023-03-31T00:06:44.360Z,14.47
2023-03-31T00:09:17.794Z,18.13
2023-03-31T00:11:47.428Z,16.30
2023-03-31T00:14:17.983Z,17.27
2023-03-31T00:16:47.316Z,19.23
2023-03-31T00:19:34.380Z,19.30
2023-03-31T00:22:10.782Z,16.30
2023-03-31T00:24:39.545Z,22.07
2023-03-31T00:27:08.259Z,18.10
2023-03-31T00:29:37.104Z,13.13
2023-03-31T00:32:05.960Z,16.37
2023-03-31T00:34:34.818Z,12.97
2023-03-31T00:37:03.529Z,14.87
2023-03-31T00:39:33.983Z,15.93
2023-03-31T00:42:06.126Z,13.90
2023-03-31T00:44:34.751Z,15.83
2023-03-31T00:47:09.849Z,12.70
2023-03-31T00:49:54.444Z,13.63
2023-03-31T00:52:36.711Z,19.53
2023-03-31T00:55:08.592Z,12.93
2023-03-31T00:57:40.157Z,14.80
2023-03-31T01:00:15.451Z,18.30
2023-03-31T01:02:48.705Z,12.63
2023-03-31T01:05:17.828Z,10.83
2023-03-31T01:07:49.046Z,16.27
2023-03-31T01:10:17.828Z,15.00
2023-03-31T01:12:49.905Z,13.70
2023-03-31T01:15:18.569Z,17.10
2023-03-31T01:17:49.752Z,13.07
2023-03-31T01:21:02.628Z,16.67
2023-03-31T01:23:44.261Z,17.77
2023-03-31T01:26:42.134Z,13.73
2023-03-31T01:29:18.181Z,11.97
2023-03-31T01:31:59.050Z,13.37
2023-03-31T01:34:47.225Z,17.07
2023-03-31T01:37:35.516Z,19.47
2023-03-31T01:40:26.761Z,16.50
2023-03-31T01:42:58.579Z,16.53
2023-03-31T01:45:46.970Z,15.33
2023-03-31T01:48:24.504Z,16.57
2023-03-31T01:50:59.243Z,20.83
2023-03-31T01:53:36.401Z,19.03
2023-03-31T01:56:23.650Z,17.93
2023-03-31T01:59:01.899Z,18.00
2023-03-31T02:01:37.295Z,17.00
2023-03-31T02:04:08.616Z,17.50
2023-03-31T02:06:40.292Z,20.07
2023-03-31T02:09:11.846Z,19.67
2023-03-31T02:11:42.483Z,22.43
2023-03-31T02:14:14.095Z,18.47
2023-03-31T02:16:48.040Z,21.37
2023-03-31T02:19:19.822Z,23.60
2023-03-31T02:21:51.021Z,22.80
2023-03-31T02:24:22.848Z,24.40
2023-03-31T02:26:57.098Z,22.40
2023-03-31T02:29:26.227Z,27.07
2023-03-31T02:31:58.003Z,22.17
2023-03-31T02:34:26.834Z,24.90
2023-03-31T02:36:55.868Z,26.43
2023-03-31T02:39:33.079Z,24.97
2023-03-31T02:42:04.423Z,21.20
2023-03-31T02:44:33.172Z,25.13
2023-03-31T02:47:03.150Z,28.37
2023-03-31T02:49:33.747Z,29.83
2023-03-31T02:52:05.347Z,24.87
2023-03-31T02:55:02.713Z,23.37
2023-03-31T02:57:50.769Z,25.10
2023-03-31T03:00:45.099Z,27.37
2023-03-31T03:03:31.747Z,25.03
2023-03-31T03:06:06.726Z,22.90
2023-03-31T03:08:52.277Z,20.00
2023-03-31T03:11:29.874Z,24.17
2023-03-31T03:14:13.446Z,23.47
2023-03-31T03:16:48.260Z,27.70
2023-03-31T03:19:22.750Z,20.73
2023-03-31T03:21:51.527Z,24.53
2023-03-31T03:24:21.960Z,22.83
2023-03-31T03:26:51.996Z,20.30
2023-03-31T03:29:20.784Z,27.83
2023-03-31T03:31:49.554Z,30.07
2023-03-31T03:34:19.017Z,24.03
2023-03-31T03:36:48.561Z,21.70
2023-03-31T03:39:17.213Z,21.93
2023-03-31T03:41:46.986Z,23.60
2023-03-31T03:44:15.955Z,23.57
2023-03-31T03:46:47.608Z,20.43
2023-03-31T03:49:16.581Z,22.07
2023-03-31T03:51:45.293Z,17.90
2023-03-31T03:54:14.719Z,16.53
2023-03-31T03:56:43.450Z,21.23
2023-03-31T03:59:13.136Z,15.43
2023-03-31T04:01:41.996Z,14.57
2023-03-31T04:04:10.723Z,16.60
2023-03-31T04:06:39.603Z,13.70
2023-03-31T04:09:08.418Z,19.27
2023-03-31T04:11:37.113Z,20.87
2023-03-31T04:14:06.519Z,27.03
2023-03-31T04:16:35.253Z,16.73
2023-03-31T04:19:05.135Z,14.97
2023-03-31T04:21:36.680Z,20.90
2023-03-31T04:24:05.535Z,21.33
2023-03-31T04:26:44.976Z,16.37
2023-03-31T04:29:20.591Z,15.40
2023-03-31T04:31:51.267Z,19.70
2023-03-31T04:34:21.580Z,12.53
2023-03-31T04:36:50.322Z,14.13
2023-03-31T04:39:24.992Z,15.47
2023-03-31T04:41:55.785Z,17.48
2023-03-31T04:44:24.707Z,13.57
2023-03-31T04:46:53.891Z,17.17
2023-03-31T04:55:15.099Z,19.40
2023-03-31T04:57:43.931Z,23.32
2023-03-31T05:00:15.702Z,15.88
2023-03-31T05:02:45.923Z,14.53
2023-03-31T05:05:14.942Z,11.73
2023-03-31T05:07:43.737Z,11.37
2023-03-31T05:30:58.155Z,15.97
2023-03-31T05:33:45.648Z,19.20
2023-03-31T05:45:09.536Z,14.93
2023-03-31T05:47:38.279Z,11.63
2023-03-31T05:50:14.986Z,16.70
2023-03-31T05:52:44.038Z,16.20
2023-03-31T05:55:13.345Z,16.45
2023-03-31T05:57:42.086Z,17.62
2023-03-31T06:00:11.800Z,14.58
2023-03-31T06:02:41.903Z,12.10
2023-03-31T06:05:10.951Z,16.57
2023-03-31T06:07:41.629Z,21.30
2023-03-31T06:10:11.145Z,13.15
2023-03-31T06:12:56.765Z,13.35
2023-03-31T06:15:29.072Z,12.82
2023-03-31T06:17:57.916Z,20.92
2023-03-31T06:20:28.550Z,24.87
2023-03-31T06:22:57.329Z,21.17
2023-03-31T06:25:26.282Z,15.85
2023-03-31T06:27:55.026Z,17.52
2023-03-31T06:30:23.850Z,14.80
2023-03-31T06:32:54.116Z,18.40
2023-03-31T06:35:52.874Z,25.95
2023-03-31T06:38:21.641Z,14.65
2023-03-31T06:40:51.882Z,21.37
2023-03-31T06:43:21.028Z,17.48
2023-03-31T06:45:53.320Z,16.02
2023-03-31T06:48:24.345Z,16.82
2023-03-31T06:50:57.530Z,14.85
2023-03-31T06:53:26.327Z,21.52
2023-03-31T06:55:55.077Z,17.20
2023-03-31T06:58:29.076Z,14.43
2023-03-31T07:00:59.833Z,18.23
2023-03-31T07:03:29.756Z,17.25
2023-03-31T07:05:58.608Z,13.98
2023-03-31T07:08:27.336Z,17.35
2023-03-31T07:10:58.819Z,17.07
2023-03-31T07:13:29.799Z,15.18
2023-03-31T07:15:58.736Z,13.75
2023-03-31T07:18:29.168Z,18.27
2023-03-31T07:21:01.076Z,23.18
2023-03-31T07:23:29.912Z,14.93
2023-03-31T07:26:02.954Z,13.18
2023-03-31T07:28:33.793Z,13.95
2023-03-31T07:31:02.595Z,11.73
2023-03-31T07:44:08.710Z,7.92
2023-03-31T07:47:22.351Z,11.38
2023-03-31T07:50:00.513Z,14.58
2023-03-31T07:59:10.542Z,12.50
2023-03-31T08:20:13.238Z,13.70
2023-03-31T08:25:33.607Z,10.75
2023-03-31T08:35:02.816Z,9.00
2023-03-31T08:37:39.593Z,6.35
2023-03-31T08:45:49.644Z,7.15
2023-03-31T08:48:41.178Z,7.62
2023-03-31T08:51:35.140Z,8.80
2023-03-31T08:54:21.976Z,7.05
2023-03-31T08:56:52.450Z,8.35
2023-03-31T08:59:40.967Z,8.40
2023-03-31T09:02:54.918Z,10.18
2023-03-31T09:05:58.911Z,8.43
2023-03-31T09:08:56.040Z,13.48
2023-03-31T09:14:53.131Z,13.62
2023-03-31T09:17:48.164Z,10.65
2023-03-31T09:20:22.262Z,15.63
2023-03-31T09:23:00.133Z,12.10
2023-03-31T09:32:34.104Z,7.58
2023-03-31T09:35:36.565Z,9.08
2023-03-31T09:38:43.491Z,11.95
2023-03-31T09:41:20.112Z,7.92
2023-03-31T09:50:20.054Z,9.28
2023-03-31T09:52:55.360Z,8.43
2023-03-31T09:59:03.086Z,6.50
2023-03-31T10:01:36.876Z,10.32
2023-03-31T10:04:15.980Z,7.30
2023-03-31T10:06:47.464Z,10.18
2023-03-31T10:09:17.256Z,9.98
2023-03-31T10:12:03.173Z,5.75
2023-03-31T10:15:09.642Z,8.30
2023-03-31T10:17:40.620Z,6.92
2023-03-31T10:20:11.227Z,12.07
2023-03-31T10:22:56.280Z,10.28
2023-03-31T10:28:38.166Z,6.60
2023-03-31T10:44:47.699Z,5.53
2023-03-31T10:47:25.961Z,6.62
2023-03-31T10:49:59.300Z,8.20
2023-03-31T10:52:29.025Z,8.40
2023-03-31T10:55:02.294Z,7.58
2023-03-31T10:57:45.727Z,6.97
2023-03-31T11:00:47.596Z,7.65
2023-03-31T11:07:05.979Z,5.40
2023-03-31T11:17:23.239Z,6.85
2023-03-31T11:20:14.170Z,10.43
2023-03-31T11:25:40.520Z,11.55
2023-03-31T11:28:34.264Z,9.23
2023-03-31T11:32:08.176Z,6.97
2023-03-31T11:34:21.408Z,10.50
2023-03-31T11:37:25.472Z,7.67
2023-03-31T11:40:13.872Z,13.20
2023-03-31T11:42:55.155Z,7.45
2023-03-31T11:45:32.747Z,8.53
2023-03-31T11:48:07.444Z,12.28
2023-03-31T11:50:39.766Z,9.25
2023-03-31T11:53:23.958Z,11.10
2023-03-31T11:56:11.033Z,9.23
2023-03-31T11:58:56.458Z,11.03
2023-03-31T12:08:23.997Z,7.30
2023-03-31T12:11:33.214Z,9.03
2023-03-31T12:14:09.399Z,8.10
2023-03-31T12:16:59.972Z,12.50
2023-03-31T12:19:54.682Z,7.40
2023-03-31T12:22:29.193Z,6.12
2023-03-31T12:28:36.800Z,4.83
2023-03-31T12:31:12.371Z,7.22
2023-03-31T12:37:51.844Z,7.83
2023-03-31T12:40:41.413Z,6.60
2023-03-31T12:43:17.229Z,6.75
2023-03-31T12:46:08.402Z,7.67
2023-03-31T12:49:20.050Z,7.67
2023-03-31T13:12:31.811Z,6.42
2023-03-31T13:15:22.950Z,6.10
2023-03-31T13:18:02.254Z,11.90
2023-03-31T13:23:37.745Z,10.28
2023-03-31T13:26:08.542Z,8.93
2023-03-31T13:29:19.948Z,6.25
2023-03-31T13:35:40.115Z,8.88
2023-03-31T13:38:13.165Z,7.28
2023-03-31T13:41:13.267Z,5.47
2023-03-31T13:44:07.146Z,13.35
2023-03-31T13:46:51.626Z,7.35
2023-03-31T13:49:49.215Z,6.92
2023-03-31T13:59:37.060Z,5.65
2023-03-31T14:02:38.979Z,6.85
2023-03-31T14:05:31.465Z,8.88
2023-03-31T14:08:05.039Z,6.80
2023-03-31T14:10:41.705Z,8.08
2023-03-31T14:13:33.999Z,7.58
2023-03-31T14:22:46.006Z,7.55
2023-03-31T14:25:36.979Z,8.05
2023-03-31T14:28:39.887Z,6.53
2023-03-31T14:31:41.929Z,9.80
2023-03-31T14:35:25.048Z,6.00
2023-03-31T14:40:33.495Z,8.78
2023-03-31T14:43:12.191Z,9.25
2023-03-31T14:48:58.121Z,8.48
2023-03-31T14:51:47.169Z,10.15
2023-03-31T14:54:20.894Z,12.73
2023-03-31T14:56:52.874Z,7.95
2023-03-31T14:59:37.728Z,10.20
2023-03-31T15:02:08.852Z,7.83
2023-03-31T15:04:45.240Z,8.88
2023-03-31T15:08:09.202Z,7.03
2023-03-31T15:10:00.304Z,9.48
2023-03-31T15:12:38.225Z,6.47
2023-03-31T15:19:07.786Z,11.22
2023-03-31T15:21:46.117Z,8.08
2023-03-31T15:28:01.603Z,17.73
2023-03-31T15:31:10.033Z,8.50
2023-03-31T15:33:44.348Z,7.22
2023-03-31T15:43:44.619Z,12.82
2023-03-31T15:46:19.087Z,5.58
2023-03-31T15:49:10.442Z,14.13
2023-03-31T15:51:36.350Z,14.90
2023-03-31T15:54:06.818Z,9.58
2023-03-31T15:56:46.940Z,13.00
2023-03-31T16:02:05.877Z,8.33
2023-03-31T16:04:37.637Z,7.83
2023-03-31T16:07:18.534Z,10.30
2023-03-31T16:10:11.353Z,7.37
2023-03-31T16:12:49.825Z,11.40
2023-03-31T16:15:25.023Z,10.78
2023-03-31T16:17:58.808Z,11.70
2023-03-31T16:20:34.932Z,10.48
2023-03-31T16:23:05.515Z,8.90
2023-03-31T16:25:37.340Z,9.48
2023-03-31T16:28:08.516Z,13.25
2023-03-31T16:30:46.244Z,12.13
2023-03-31T16:33:26.943Z,8.05
2023-03-31T16:35:59.944Z,12.63
2023-03-31T16:39:20.439Z,11.50
2023-03-31T16:41:49.316Z,10.80
2023-03-31T16:44:18.303Z,15.35
2023-03-31T16:46:47.140Z,12.37
2023-03-31T16:49:16.105Z,12.10
2023-03-31T16:51:46.852Z,14.83
2023-03-31T16:54:15.621Z,18.30
2023-03-31T16:56:47.472Z,24.60
2023-03-31T16:59:16.480Z,32.70
2023-03-31T17:01:45.795Z,14.75
2023-03-31T17:04:14.520Z,20.35
2023-03-31T17:06:43.644Z,14.70
2023-03-31T17:09:12.467Z,17.67
2023-03-31T17:11:50.018Z,16.97
2023-03-31T17:14:23.628Z,15.88
2023-03-31T17:16:58.860Z,87.12
2023-03-31T17:19:40.168Z,54.95
2023-03-31T17:28:06.329Z,29.85
2023-03-31T17:30:51.984Z,16.57
2023-03-31T17:33:24.649Z,21.10
2023-03-31T17:35:59.623Z,27.27
2023-03-31T17:47:24.435Z,26.75
2023-03-31T17:49:53.613Z,21.15
2023-03-31T17:52:22.729Z,19.37
2023-03-31T17:54:53.411Z,33.85
2023-03-31T17:57:22.295Z,13.15
2023-03-31T17:59:50.998Z,25.17
2023-03-31T18:02:24.479Z,20.17
2023-03-31T18:07:55.415Z,16.48
2023-03-31T18:10:15.465Z,21.12
2023-03-31T18:12:46.700Z,21.17
2023-03-31T18:18:11.163Z,24.02
2023-03-31T18:20:39.906Z,23.90
2023-03-31T18:23:08.521Z,24.52
2023-03-31T18:25:37.459Z,30.50
2023-03-31T18:28:06.685Z,26.82
2023-03-31T18:30:35.474Z,20.45
2023-03-31T18:33:07.333Z,33.40
2023-03-31T18:35:37.237Z,31.97
2023-03-31T18:38:06.167Z,23.52
2023-03-31T18:40:37.410Z,32.08
2023-03-31T18:43:09.703Z,34.90
2023-03-31T18:45:39.972Z,24.72
2023-03-31T18:48:15.213Z,27.82
2023-03-31T18:50:50.144Z,25.77
2023-03-31T18:53:33.256Z,37.23
2023-03-31T18:56:06.632Z,26.52
2023-03-31T18:58:37.726Z,20.75
2023-03-31T19:01:06.726Z,17.87
2023-03-31T19:03:36.881Z,20.30
2023-03-31T19:06:10.911Z,27.07
2023-03-31T19:08:41.675Z,26.68
2023-03-31T19:11:18.030Z,35.33
2023-03-31T19:13:47.026Z,33.75
2023-03-31T19:16:16.291Z,24.90
2023-03-31T19:18:46.729Z,29.23
2023-03-31T19:23:55.427Z,32.40
2023-03-31T19:26:28.483Z,44.95
2023-03-31T19:29:09.253Z,35.90
2023-03-31T19:31:41.706Z,41.37
2023-03-31T19:34:13.083Z,33.67
2023-03-31T19:36:41.764Z,34.80
2023-03-31T19:39:11.586Z,33.60
2023-03-31T19:41:42.036Z,31.37
2023-03-31T19:44:12.475Z,37.13
2023-03-31T19:46:45.645Z,39.95
2023-03-31T19:49:14.551Z,37.03
2023-03-31T19:51:45.034Z,29.12
2023-03-31T19:54:26.050Z,32.95
2023-03-31T19:56:54.816Z,30.45
2023-03-31T19:59:30.828Z,38.80
2023-03-31T20:01:59.793Z,31.93
2023-03-31T20:04:28.726Z,35.70
2023-03-31T20:06:57.962Z,38.05
2023-03-31T20:09:36.475Z,34.23
2023-03-31T20:12:05.514Z,35.92
2023-03-31T20:14:34.313Z,26.70
2023-03-31T20:23:55.331Z,32.45
2023-03-31T20:32:41.599Z,30.45
2023-03-31T20:35:14.112Z,25.48
2023-03-31T20:37:52.134Z,29.90
2023-03-31T20:40:25.740Z,28.73
2023-03-31T20:42:56.326Z,29.65
2023-03-31T20:45:25.450Z,30.50
2023-03-31T20:47:57.484Z,26.85
2023-03-31T20:50:28.519Z,24.40
2023-03-31T20:53:04.949Z,24.77
2023-03-31T20:55:35.881Z,24.90
2023-03-31T20:58:06.607Z,24.00
2023-03-31T21:00:38.989Z,22.85
2023-03-31T21:03:11.678Z,22.87
2023-03-31T21:05:56.128Z,26.75
2023-03-31T21:08:33.911Z,22.75
2023-03-31T21:11:06.325Z,23.90
2023-03-31T21:13:37.619Z,25.85
2023-03-31T21:16:14.746Z,23.85
2023-03-31T21:18:49.843Z,25.70
2023-03-31T21:21:19.936Z,18.95
2023-03-31T21:23:51.648Z,23.85
2023-03-31T21:26:25.493Z,30.77
2023-03-31T21:28:55.207Z,17.82
2023-03-31T21:31:30.535Z,20.77
2023-03-31T21:34:04.586Z,24.80
2023-03-31T21:36:33.564Z,33.50
2023-03-31T21:39:05.749Z,29.00
2023-03-31T21:41:41.089Z,28.27
2023-03-31T21:44:10.283Z,31.37
2023-03-31T21:46:40.005Z,36.77
2023-03-31T21:49:11.868Z,28.02
2023-03-31T21:51:41.262Z,31.27
2023-03-31T21:54:10.246Z,31.07
2023-03-31T21:56:39.400Z,40.15
2023-03-31T21:59:08.745Z,28.27
2023-03-31T22:01:37.781Z,28.67
2023-03-31T22:04:09.567Z,31.77
2023-03-31T22:06:39.954Z,25.90
2023-03-31T22:09:08.746Z,27.65
2023-03-31T22:11:37.602Z,26.65
2023-03-31T22:14:06.761Z,29.95
2023-03-31T22:16:35.587Z,26.17
2023-03-31T22:19:04.916Z,25.45
2023-03-31T22:21:33.693Z,24.18
2023-03-31T22:24:02.966Z,23.70
2023-03-31T22:26:32.388Z,32.75
2023-03-31T22:29:01.185Z,36.68
2023-03-31T22:31:30.037Z,37.28
2023-03-31T22:34:01.172Z,27.35
2023-03-31T22:36:30.175Z,27.55
2023-03-31T22:38:58.984Z,32.63
2023-03-31T22:41:30.465Z,26.20
2023-03-31T22:43:59.836Z,27.17
2023-03-31T22:46:28.885Z,25.02
2023-03-31T22:48:59.488Z,23.47
2023-03-31T22:51:31.138Z,21.62
2023-03-31T22:54:01.590Z,30.70
2023-03-31T22:56:30.869Z,23.52
2023-03-31T22:59:09.133Z,27.40
2023-03-31T23:04:59.986Z,22.58
2023-03-31T23:07:30.310Z,22.05
2023-03-31T23:10:02.061Z,21.05
2023-03-31T23:12:30.990Z,25.17
2023-03-31T23:14:59.714Z,19.17
2023-03-31T23:17:28.431Z,23.45
2023-03-31T23:19:58.940Z,23.55
2023-03-31T23:22:27.732Z,23.07
2023-03-31T23:24:56.885Z,16.65
2023-03-31T23:27:25.611Z,23.42
2023-03-31T23:29:54.331Z,22.75
2023-03-31T23:32:23.090Z,20.62
2023-03-31T23:34:51.901Z,38.20
2023-03-31T23:37:20.611Z,44.20
2023-03-31T23:39:49.438Z,39.50
2023-03-31T23:42:19.916Z,36.33
2023-03-31T23:44:48.830Z,36.13
2023-03-31T23:47:17.674Z,42.03
2023-03-31T23:49:46.837Z,33.58
2023-03-31T23:52:15.525Z,34.90
2023-03-31T23:54:44.339Z,36.03
2023-03-31T23:57:13.254Z,33.18
2023-03-31T23:59:41.977Z,33.10
